Stations météo

réclame
Mon MeteoGroup
Cairnwell, Grande-Bretagne (3072): Température de l'air & dewpoint: 19.01.2020 00:00:00 - 25.01.2020 00:00:00 (GMT)Cairnwell, Grande-Bretagne (3072): Vitesse du vent & gusts: 19.01.2020 00:00:00 - 25.01.2020 00:00:00 (GMT)Cairnwell, Grande-Bretagne (3072): Direction du vent: 19.01.2020 00:00:00 - 25.01.2020 00:00:00 (GMT)
Date & Time tt [°C] td [°C] ff [km/h] ff [knt] fx [km/h] fx [knt] dd
25.01.2020 00:00:00 1,9 1,9 42 23 57 31 SSW
24.01.2020 23:00:00 1,5 1,5 46 25 52 28 SSW
24.01.2020 22:00:00 1,2 1,2 29 16 - - SSW
24.01.2020 21:00:00 1,2 1,2 28 15 - - SSW
24.01.2020 20:00:00 1,2 1,2 29 16 - - SW
24.01.2020 19:00:00 1,1 1,1 18 10 46 25 WSW
24.01.2020 18:00:00 1,9 1,0 22 12 48 26 W
24.01.2020 17:00:00 1,0 0,9 24 13 48 26 W
24.01.2020 16:00:00 0,7 0,6 41 22 48 26 W
24.01.2020 15:00:00 0,4 -0,1 35 19 52 28 W
24.01.2020 14:00:00 0,5 -0,4 11 6 - - WNW
24.01.2020 13:00:00 0,4 0,0 11 6 52 28 SW
24.01.2020 12:00:00 0,5 -0,4 18 10 - - W
24.01.2020 11:00:00 0,5 -0,2 22 12 46 25 W
24.01.2020 10:00:00 0,8 0,0 21 11 59 32 W
24.01.2020 09:00:00 0,9 0,7 42 23 54 29 W
24.01.2020 08:00:00 1,2 1,2 22 12 46 25 W
24.01.2020 07:00:00 1,6 1,6 31 17 52 28 W
24.01.2020 06:00:00 1,9 1,9 16 9 59 32 W
24.01.2020 05:00:00 2,4 2,4 41 22 52 28 W
24.01.2020 04:00:00 2,7 2,7 34 18 59 32 W
24.01.2020 03:00:00 3,2 3,2 35 19 63 34 W
24.01.2020 02:00:00 3,5 3,1 50 27 68 37 W
24.01.2020 01:00:00 3,2 3,2 37 20 61 33 W
24.01.2020 00:00:00 2,7 2,7 37 20 70 38 W
23.01.2020 23:00:00 2,8 2,8 48 26 68 37 W
23.01.2020 22:00:00 2,7 2,7 22 12 70 38 WSW
23.01.2020 21:00:00 2,6 2,6 44 24 68 37 W
23.01.2020 20:00:00 2,4 2,4 46 25 74 40 W
23.01.2020 19:00:00 2,7 2,7 59 32 76 41 W
23.01.2020 18:00:00 2,4 2,4 31 17 72 39 WSW
23.01.2020 17:00:00 2,3 2,3 22 12 - - W
23.01.2020 16:00:00 2,4 2,4 16 9 - - SSW
23.01.2020 15:00:00 2,7 2,5 15 8 48 26 W
23.01.2020 14:00:00 2,9 1,8 22 12 - - W
23.01.2020 13:00:00 2,3 1,1 22 12 67 36 W
23.01.2020 12:00:00 2,2 1,3 59 32 91 49 W
23.01.2020 11:00:00 1,5 1,1 52 28 81 44 WNW
23.01.2020 10:00:00 1,2 1,2 67 36 85 46 W
23.01.2020 09:00:00 1,6 1,1 44 24 57 31 WNW
23.01.2020 08:00:00 1,6 1,5 44 24 59 32 W
23.01.2020 07:00:00 2,6 1,5 39 21 61 33 W
23.01.2020 06:00:00 2,3 1,0 21 11 54 29 WSW
23.01.2020 05:00:00 2,0 1,1 35 19 65 35 W
23.01.2020 04:00:00 2,7 2,3 37 20 70 38 W
23.01.2020 03:00:00 2,9 2,5 24 13 68 37 W
23.01.2020 02:00:00 3,0 2,6 35 19 68 37 WSW
23.01.2020 01:00:00 3,0 3,0 50 27 76 41 WSW
23.01.2020 00:00:00 3,5 3,1 50 27 67 36 WSW
22.01.2020 23:00:00 3,9 3,5 21 11 - - SW
22.01.2020 22:00:00 4,2 3,9 29 16 50 27 WSW
22.01.2020 21:00:00 4,8 4,3 26 14 - - W
22.01.2020 20:00:00 5,0 5,0 24 13 - - W
22.01.2020 19:00:00 4,7 4,7 16 9 - - WNW
22.01.2020 18:00:00 4,9 4,9 31 17 - - WNW
22.01.2020 17:00:00 5,3 5,3 24 13 - - WNW
22.01.2020 16:00:00 6,9 5,3 18 10 - - WNW
22.01.2020 15:00:00 6,2 6,1 26 14 - - NW
22.01.2020 14:00:00 5,8 5,8 31 17 - - WNW
22.01.2020 13:00:00 6,2 5,3 29 16 54 29 NW
22.01.2020 12:00:00 5,5 5,5 46 25 55 30 WNW
22.01.2020 11:00:00 5,3 5,3 52 28 65 35 WNW
22.01.2020 10:00:00 4,8 4,8 52 28 67 36 WNW
22.01.2020 09:00:00 4,6 4,6 57 31 74 40 WNW
22.01.2020 08:00:00 4,4 4,4 63 34 76 41 WNW
22.01.2020 07:00:00 4,5 4,2 63 34 78 42 WNW
22.01.2020 06:00:00 5,0 4,2 63 34 91 49 WNW
22.01.2020 05:00:00 5,1 4,8 68 37 78 42 WNW
22.01.2020 04:00:00 5,3 5,3 67 36 81 44 WNW
22.01.2020 03:00:00 5,3 5,3 46 25 65 35 WNW
22.01.2020 02:00:00 5,3 5,3 48 26 68 37 WNW
22.01.2020 01:00:00 5,1 5,1 35 19 65 35 WNW
22.01.2020 00:00:00 4,8 4,8 37 20 52 28 WNW
21.01.2020 23:00:00 4,7 4,7 24 13 48 26 W
21.01.2020 22:00:00 4,8 4,8 28 15 55 30 W
21.01.2020 21:00:00 4,6 4,6 34 18 55 30 W
21.01.2020 20:00:00 4,5 4,5 28 15 52 28 W
21.01.2020 19:00:00 4,4 4,4 29 16 59 32 WNW
21.01.2020 18:00:00 4,4 4,4 26 14 48 26 W
21.01.2020 17:00:00 4,6 4,6 24 13 46 25 WNW
21.01.2020 16:00:00 4,8 4,8 39 21 65 35 W
21.01.2020 15:00:00 4,9 4,9 52 28 68 37 W
21.01.2020 14:00:00 4,7 4,7 61 33 94 51 W
21.01.2020 13:00:00 4,7 4,7 70 38 87 47 W
21.01.2020 12:00:00 5,1 4,4 34 18 72 39 W
21.01.2020 11:00:00 4,9 4,8 41 22 63 34 W
21.01.2020 10:00:00 4,8 4,8 48 26 65 35 W
21.01.2020 09:00:00 3,8 3,8 44 24 50 27 WSW
21.01.2020 08:00:00 3,4 3,4 22 12 46 25 SW
21.01.2020 07:00:00 4,1 4,1 35 19 54 29 W
21.01.2020 06:00:00 3,9 3,9 37 20 55 30 W
21.01.2020 05:00:00 3,6 3,6 34 18 61 33 W
21.01.2020 04:00:00 3,6 3,6 44 24 55 30 W
21.01.2020 03:00:00 3,2 3,2 37 20 54 29 WSW
21.01.2020 02:00:00 2,9 2,9 39 21 55 30 WSW
21.01.2020 01:00:00 2,8 2,8 35 19 57 31 SW
21.01.2020 00:00:00 2,8 2,8 50 27 78 42 W
20.01.2020 23:00:00 2,7 2,7 57 31 87 47 W
20.01.2020 22:00:00 2,2 2,2 29 16 80 43 WSW
20.01.2020 21:00:00 2,1 2,1 44 24 67 36 W
20.01.2020 20:00:00 2,1 1,9 9 5 - - SSE
20.01.2020 19:00:00 1,9 1,8 34 18 70 38 WSW
20.01.2020 18:00:00 2,1 1,3 50 27 67 36 WSW
20.01.2020 17:00:00 2,1 1,0 34 18 63 34 W
20.01.2020 16:00:00 2,9 0,5 39 21 89 48 W
20.01.2020 15:00:00 7,3 -3,2 70 38 89 48 W
20.01.2020 14:00:00 2,8 -0,7 31 17 72 39 WSW
20.01.2020 13:00:00 2,3 0,5 41 22 81 44 W
20.01.2020 12:00:00 1,6 1,6 63 34 78 42 WSW
20.01.2020 11:00:00 2,6 0,3 61 33 83 45 W
20.01.2020 10:00:00 2,0 0,9 46 25 63 34 WSW
20.01.2020 09:00:00 1,5 1,5 34 18 50 27 WSW
20.01.2020 08:00:00 1,1 1,1 15 8 55 30 WNW
20.01.2020 07:00:00 1,9 1,9 35 19 67 36 WNW
20.01.2020 06:00:00 3,0 2,2 70 38 94 51 WNW
20.01.2020 05:00:00 3,3 3,3 48 26 67 36 W
20.01.2020 04:00:00 1,9 1,9 37 20 55 30 W
20.01.2020 03:00:00 1,0 1,0 28 15 48 26 WSW
20.01.2020 02:00:00 1,5 0,8 37 20 70 38 WSW
20.01.2020 01:00:00 0,9 0,8 34 18 54 29 WSW
20.01.2020 00:00:00 1,3 0,8 26 14 48 26 SW
19.01.2020 23:00:00 0,6 0,4 21 11 52 28 S
19.01.2020 22:00:00 1,2 0,1 9 5 91 49 S
19.01.2020 21:00:00 2,6 -1,2 50 27 96 52 W
19.01.2020 20:00:00 4,4 -2,7 34 18 67 36 W
19.01.2020 19:00:00 1,9 -3,7 31 17 57 31 W
19.01.2020 18:00:00 1,0 -2,9 57 31 96 52 WSW
19.01.2020 17:00:00 1,1 -3,1 57 31 85 46 WSW
19.01.2020 16:00:00 0,3 -3,3 67 36 109 59 WSW
19.01.2020 15:00:00 -0,4 -4,0 50 27 72 39 WSW
19.01.2020 14:00:00 -0,9 -3,5 55 30 93 50 WSW
19.01.2020 13:00:00 -0,6 -3,3 55 30 70 38 WSW
19.01.2020 12:00:00 -1,1 -2,3 46 25 72 39 SW
19.01.2020 11:00:00 -1,2 -1,6 28 15 48 26 WSW
19.01.2020 10:00:00 -1,5 -1,5 13 7 50 27 SW
19.01.2020 09:00:00 -1,4 -1,4 15 8 - - SW
19.01.2020 08:00:00 -1,2 -2,8 18 10 48 26 SW
19.01.2020 07:00:00 -0,7 -2,9 31 17 72 39 WNW
19.01.2020 06:00:00 -1,5 -2,9 57 31 83 45 WNW
19.01.2020 05:00:00 -2,1 -2,9 63 34 85 46 WNW
19.01.2020 04:00:00 -1,6 -2,8 65 35 87 47 WNW
19.01.2020 03:00:00 -1,8 -3,5 48 26 57 31 WNW
19.01.2020 02:00:00 -1,8 -2,9 41 22 67 36 WNW
19.01.2020 01:00:00 -1,9 -3,2 21 11 67 36 W
19.01.2020 00:00:00 -2,3 -3,1 35 19 46 25 NW

tt = Température de l'air
td = dewpoint
ff = Vitesse du vent
fx = gusts
dd = Direction du vent

stations d'obs. à proximité